createdAt,value
2024-03-12T00:01:01.571Z,9.10
2024-03-12T00:03:28.909Z,9.00
2024-03-12T00:06:00.787Z,9.10
2024-03-12T00:08:30.847Z,9.00
2024-03-12T00:10:58.305Z,9.10
2024-03-12T00:13:24.940Z,9.10
2024-03-12T00:15:51.686Z,9.10
2024-03-12T00:18:18.456Z,9.10
2024-03-12T00:20:46.704Z,9.10
2024-03-12T00:23:13.465Z,9.10
2024-03-12T00:25:41.726Z,9.10
2024-03-12T00:28:09.641Z,9.10
2024-03-12T00:30:41.863Z,9.10
2024-03-12T00:33:09.108Z,9.20
2024-03-12T00:35:36.616Z,9.20
2024-03-12T00:38:06.717Z,9.20
2024-03-12T00:40:37.469Z,9.20
2024-03-12T00:43:07.070Z,9.20
2024-03-12T00:45:40.653Z,9.20
2024-03-12T00:48:10.746Z,9.20
2024-03-12T00:50:38.344Z,9.20
2024-03-12T00:53:05.376Z,9.10
2024-03-12T00:55:32.824Z,9.20
2024-03-12T00:58:00.191Z,9.20
2024-03-12T01:00:35.511Z,9.20
2024-03-12T01:03:02.486Z,9.20
2024-03-12T01:05:32.867Z,9.20
2024-03-12T01:08:01.066Z,9.20
2024-03-12T01:10:29.683Z,9.10
2024-03-12T01:12:57.741Z,9.20
2024-03-12T01:15:25.075Z,9.10
2024-03-12T01:17:54.615Z,9.10
2024-03-12T01:20:21.977Z,9.10
2024-03-12T01:22:51.418Z,9.10
2024-03-12T01:25:18.675Z,9.10
2024-03-12T01:27:45.467Z,9.10
2024-03-12T01:30:17.382Z,9.10
2024-03-12T01:32:48.537Z,9.10
2024-03-12T01:35:15.318Z,9.10
2024-03-12T01:37:43.807Z,9.10
2024-03-12T01:40:31.035Z,9.10
2024-03-12T01:43:07.777Z,9.10
2024-03-12T01:45:35.091Z,9.10
2024-03-12T01:48:10.888Z,9.10
2024-03-12T01:50:40.932Z,9.20
2024-03-12T01:53:08.819Z,9.10
2024-03-12T01:55:43.634Z,9.10
2024-03-12T01:58:17.094Z,9.10
2024-03-12T02:00:45.906Z,9.00
2024-03-12T02:03:13.081Z,9.10
2024-03-12T02:05:41.974Z,9.00
2024-03-12T02:08:08.672Z,9.00
2024-03-12T02:10:35.304Z,9.00
2024-03-12T02:13:01.961Z,9.00
2024-03-12T02:15:28.671Z,9.00
2024-03-12T02:17:55.506Z,9.00
2024-03-12T02:20:23.001Z,9.00
2024-03-12T02:22:55.578Z,9.10
2024-03-12T02:25:23.270Z,9.10
2024-03-12T02:27:51.582Z,9.00
2024-03-12T02:30:19.036Z,9.10
2024-03-12T02:32:49.557Z,9.00
2024-03-12T02:35:17.311Z,9.00
2024-03-12T02:37:44.379Z,9.00
2024-03-12T02:40:14.437Z,9.00
2024-03-12T02:42:42.526Z,8.90
2024-03-12T02:45:11.437Z,8.90
2024-03-12T02:47:38.140Z,8.90
2024-03-12T02:50:07.360Z,8.90
2024-03-12T02:52:34.076Z,8.80
2024-03-12T02:55:01.864Z,8.90
2024-03-12T02:57:28.683Z,8.80
2024-03-12T02:59:55.343Z,8.80
2024-03-12T03:02:22.732Z,8.80
2024-03-12T03:04:49.392Z,6.40
2024-03-12T03:07:18.240Z,8.70
2024-03-12T03:09:45.510Z,8.70
2024-03-12T03:12:12.608Z,8.80
2024-03-12T03:14:39.254Z,8.70
2024-03-12T03:17:08.428Z,8.80
2024-03-12T03:19:35.172Z,8.70
2024-03-12T03:22:02.185Z,8.80
2024-03-12T03:24:28.914Z,8.70
2024-03-12T03:26:55.855Z,8.70
2024-03-12T03:29:23.761Z,8.80
2024-03-12T03:31:50.715Z,8.80
2024-03-12T03:34:19.014Z,8.80
2024-03-12T03:36:45.915Z,8.80
2024-03-12T03:39:12.647Z,8.70
2024-03-12T03:41:40.059Z,8.70
2024-03-12T03:44:06.773Z,8.60
2024-03-12T03:46:33.998Z,8.60
2024-03-12T03:49:00.813Z,8.60
2024-03-12T03:51:27.600Z,8.70
2024-03-12T03:53:54.315Z,8.70
2024-03-12T03:56:22.835Z,8.70
2024-03-12T03:58:49.878Z,8.70
2024-03-12T04:01:16.781Z,8.70
2024-03-12T04:03:43.612Z,8.60
2024-03-12T04:06:10.358Z,8.60
2024-03-12T04:08:37.149Z,8.60
2024-03-12T04:11:04.784Z,12.90
2024-03-12T04:13:33.523Z,8.70
2024-03-12T04:16:00.995Z,8.70
2024-03-12T04:18:29.707Z,8.80
2024-03-12T04:20:56.880Z,8.80
2024-03-12T04:23:23.657Z,8.80
2024-03-12T04:25:50.410Z,8.70
2024-03-12T04:28:19.077Z,8.80
2024-03-12T04:30:46.295Z,8.80
2024-03-12T04:33:13.053Z,8.80
2024-03-12T04:35:39.732Z,8.80
2024-03-12T04:38:09.064Z,8.80
2024-03-12T04:40:35.892Z,8.80
2024-03-12T04:43:03.574Z,8.80
2024-03-12T04:45:30.449Z,8.70
2024-03-12T04:47:57.166Z,8.80
2024-03-12T04:50:24.583Z,8.80
2024-03-12T04:52:51.567Z,8.70
2024-03-12T04:55:18.744Z,8.70
2024-03-12T04:57:45.567Z,8.80
2024-03-12T05:00:16.573Z,8.70
2024-03-12T05:02:44.612Z,8.70
2024-03-12T05:05:24.609Z,8.70
2024-03-12T05:07:54.164Z,8.70
2024-03-12T05:10:25.596Z,8.60
2024-03-12T05:12:52.722Z,8.60
2024-03-12T05:15:21.045Z,8.60
2024-03-12T05:17:49.617Z,8.60
2024-03-12T05:20:18.738Z,8.70
2024-03-12T05:22:46.271Z,8.70
2024-03-12T05:25:33.482Z,8.70
2024-03-12T05:28:03.366Z,8.70
2024-03-12T05:30:31.185Z,8.70
2024-03-12T05:32:57.945Z,8.60
2024-03-12T05:35:30.947Z,8.50
2024-03-12T05:38:05.058Z,8.60
2024-03-12T05:40:53.031Z,8.60
2024-03-12T05:43:38.679Z,8.60
2024-03-12T05:46:24.158Z,8.70
2024-03-12T05:48:51.997Z,8.70
2024-03-12T05:51:20.280Z,8.60
2024-03-12T05:53:46.972Z,8.60
2024-03-12T05:56:16.030Z,8.50
2024-03-12T05:58:46.536Z,8.50
2024-03-12T06:01:13.398Z,8.50
2024-03-12T06:03:40.351Z,8.50
2024-03-12T06:06:08.630Z,8.40
2024-03-12T06:08:36.132Z,8.40
2024-03-12T06:11:02.969Z,8.50
2024-03-12T06:13:29.737Z,8.50
2024-03-12T06:15:56.476Z,8.50
2024-03-12T06:18:26.131Z,8.50
2024-03-12T06:20:52.844Z,8.50
2024-03-12T06:23:19.981Z,8.50
2024-03-12T06:25:47.541Z,8.50
2024-03-12T06:28:15.783Z,8.60
2024-03-12T06:30:44.314Z,8.60
2024-03-12T06:33:13.084Z,8.60
2024-03-12T06:35:41.072Z,8.50
2024-03-12T06:38:07.836Z,8.50
2024-03-12T06:40:35.587Z,8.50
2024-03-12T06:43:02.352Z,8.50
2024-03-12T06:45:29.258Z,8.60
2024-03-12T06:47:57.965Z,8.50
2024-03-12T06:50:26.606Z,8.50
2024-03-12T06:52:57.298Z,8.50
2024-03-12T06:55:28.187Z,8.50
2024-03-12T06:58:00.932Z,8.50
2024-03-12T07:00:33.255Z,8.50
2024-03-12T07:03:00.367Z,8.50
2024-03-12T07:05:30.415Z,8.50
2024-03-12T07:07:57.637Z,8.50
2024-03-12T07:10:26.445Z,8.50
2024-03-12T07:12:54.938Z,8.60
2024-03-12T07:15:21.728Z,8.60
2024-03-12T07:17:48.954Z,8.60
2024-03-12T07:20:21.548Z,8.60
2024-03-12T07:22:48.928Z,8.60
2024-03-12T07:25:17.894Z,8.60
2024-03-12T07:27:45.147Z,8.60
2024-03-12T07:30:12.156Z,8.50
2024-03-12T07:32:38.980Z,8.60
2024-03-12T07:35:06.623Z,8.60
2024-03-12T07:37:40.529Z,8.50
2024-03-12T07:40:13.002Z,8.40
2024-03-12T07:42:43.945Z,8.20
2024-03-12T07:45:11.757Z,8.20
2024-03-12T07:47:41.507Z,8.30
2024-03-12T07:50:09.806Z,8.20
2024-03-12T07:52:36.861Z,8.30
2024-03-12T07:55:04.083Z,8.30
2024-03-12T07:57:34.465Z,8.30
2024-03-12T08:00:01.457Z,8.40
2024-03-12T08:02:31.146Z,8.40
2024-03-12T08:04:58.670Z,8.50
2024-03-12T08:07:25.480Z,8.50
2024-03-12T08:09:52.267Z,8.50
2024-03-12T08:12:20.591Z,8.50
2024-03-12T08:14:47.372Z,8.50
2024-03-12T08:17:14.137Z,8.50
2024-03-12T08:19:43.616Z,8.50
2024-03-12T08:22:10.929Z,8.50
2024-03-12T08:24:38.503Z,8.50
2024-03-12T08:27:08.558Z,8.50
2024-03-12T08:29:35.364Z,8.50
2024-03-12T08:32:02.192Z,8.50
2024-03-12T08:34:29.359Z,8.50
2024-03-12T08:36:57.131Z,8.50
2024-03-12T08:39:28.726Z,8.50
2024-03-12T08:41:56.296Z,8.50
2024-03-12T08:44:23.223Z,8.50
2024-03-12T08:46:51.059Z,8.50
2024-03-12T08:49:18.283Z,8.50
2024-03-12T08:51:46.122Z,8.60
2024-03-12T08:54:14.807Z,8.60
2024-03-12T08:56:43.938Z,8.50
2024-03-12T08:59:13.062Z,8.50
2024-03-12T09:01:40.658Z,8.40
2024-03-12T09:04:08.979Z,8.50
2024-03-12T09:06:36.647Z,8.50
2024-03-12T09:09:03.548Z,8.50
2024-03-12T09:11:30.263Z,8.50
2024-03-12T09:13:56.942Z,8.50
2024-03-12T09:16:23.722Z,8.40
2024-03-12T09:18:50.389Z,8.40
2024-03-12T09:21:18.272Z,8.30
2024-03-12T09:23:53.135Z,8.30
2024-03-12T09:26:28.774Z,8.40
2024-03-12T09:28:55.497Z,8.50
2024-03-12T09:31:22.151Z,8.40
2024-03-12T09:33:49.047Z,8.40
2024-03-12T09:36:15.985Z,8.40
2024-03-12T09:38:45.012Z,10.20
2024-03-12T09:41:14.140Z,8.40
2024-03-12T09:43:44.885Z,8.50
2024-03-12T09:46:13.021Z,8.50
2024-03-12T09:48:40.827Z,8.50
2024-03-12T09:51:08.105Z,8.50
2024-03-12T09:53:34.803Z,8.50
2024-03-12T09:56:07.610Z,8.50
2024-03-12T09:58:37.998Z,8.50
2024-03-12T10:01:05.189Z,8.50
2024-03-12T10:03:32.784Z,8.50
2024-03-12T10:05:59.801Z,8.60
2024-03-12T10:08:29.623Z,8.60
2024-03-12T10:10:57.810Z,8.60
2024-03-12T10:13:24.979Z,8.60
2024-03-12T10:15:57.473Z,8.60
2024-03-12T10:18:25.536Z,8.70
2024-03-12T10:21:01.421Z,8.70
2024-03-12T10:23:37.321Z,8.80
2024-03-12T10:26:14.128Z,8.80
2024-03-12T10:28:41.123Z,9.80
2024-03-12T10:31:13.652Z,8.80
2024-03-12T10:33:49.680Z,8.80
2024-03-12T10:36:34.369Z,8.70
2024-03-12T10:39:07.313Z,8.70
2024-03-12T10:41:34.500Z,8.70
2024-03-12T10:44:19.109Z,8.70
2024-03-12T10:46:46.461Z,7.20
2024-03-12T10:49:14.593Z,8.70
2024-03-12T10:51:43.770Z,8.60
2024-03-12T10:54:22.690Z,8.70
2024-03-12T10:56:50.069Z,8.70
2024-03-12T10:59:19.561Z,8.70
2024-03-12T11:01:48.914Z,8.80
2024-03-12T11:04:17.058Z,8.70
2024-03-12T11:06:44.938Z,8.70
2024-03-12T11:09:19.077Z,8.70
2024-03-12T11:11:45.729Z,8.60
2024-03-12T11:14:13.226Z,8.60
2024-03-12T11:16:41.620Z,8.60
2024-03-12T11:19:24.081Z,8.70
2024-03-12T11:21:52.760Z,8.80
2024-03-12T11:24:31.196Z,8.80
2024-03-12T11:27:01.862Z,8.80
2024-03-12T11:30:04.959Z,8.80
2024-03-12T11:32:36.628Z,8.90
2024-03-12T11:35:09.437Z,8.90
2024-03-12T11:37:38.930Z,9.00
2024-03-12T11:40:32.053Z,9.00
2024-03-12T11:42:59.674Z,9.00
2024-03-12T11:45:38.544Z,9.00
2024-03-12T11:48:08.651Z,9.00
2024-03-12T11:50:38.101Z,9.00
2024-03-12T11:53:24.802Z,9.00
2024-03-12T11:56:01.036Z,8.90
2024-03-12T11:58:32.647Z,8.80
2024-03-12T12:01:01.129Z,8.70
2024-03-12T12:03:29.016Z,8.80
2024-03-12T12:05:56.143Z,8.80
2024-03-12T12:08:24.701Z,8.90
2024-03-12T12:11:10.878Z,9.00
2024-03-12T12:13:38.547Z,9.00
2024-03-12T12:16:07.404Z,9.10
2024-03-12T12:18:36.246Z,9.10
2024-03-12T12:21:09.953Z,9.10
2024-03-12T12:23:40.131Z,9.00
2024-03-12T12:26:13.067Z,9.00
2024-03-12T12:28:41.268Z,9.00
2024-03-12T12:31:13.008Z,9.00
2024-03-12T12:33:45.140Z,9.00
2024-03-12T12:36:14.972Z,9.10
2024-03-12T12:38:51.990Z,9.00
2024-03-12T12:41:23.478Z,9.10
2024-03-12T12:43:53.340Z,9.10
2024-03-12T12:46:28.083Z,9.10
2024-03-12T12:48:55.095Z,9.10
2024-03-12T12:51:24.849Z,9.10
2024-03-12T12:53:53.148Z,8.90
2024-03-12T12:56:20.916Z,8.90
2024-03-12T12:58:48.557Z,8.80
2024-03-12T13:01:16.818Z,8.80
2024-03-12T13:03:47.654Z,8.80
2024-03-12T13:06:17.089Z,8.80
2024-03-12T13:09:04.585Z,8.70
2024-03-12T13:11:32.783Z,8.70
2024-03-12T13:13:59.514Z,8.60
2024-03-12T13:16:26.145Z,8.60
2024-03-12T13:18:57.019Z,8.60
2024-03-12T13:21:26.394Z,8.60
2024-03-12T13:23:54.317Z,8.60
2024-03-12T13:26:23.914Z,8.70
2024-03-12T13:28:55.071Z,8.70
2024-03-12T13:31:23.285Z,8.70
2024-03-12T13:33:51.870Z,8.70
2024-03-12T13:36:20.386Z,5.80
2024-03-12T13:38:47.114Z,8.70
2024-03-12T13:41:16.207Z,8.70
2024-03-12T13:43:45.401Z,8.70
2024-03-12T13:46:12.163Z,8.70
2024-03-12T13:48:40.928Z,8.70
2024-03-12T13:51:09.155Z,8.70
2024-03-12T13:53:36.524Z,8.70
2024-03-12T13:56:05.421Z,8.80
2024-03-12T13:58:35.402Z,8.80
2024-03-12T14:01:02.726Z,8.80
2024-03-12T14:03:29.628Z,8.80
2024-03-12T14:05:57.346Z,8.90
2024-03-12T14:08:24.563Z,8.90
2024-03-12T14:10:52.708Z,8.90
2024-03-12T14:13:20.560Z,8.90
2024-03-12T14:15:50.556Z,8.90
2024-03-12T14:18:22.105Z,8.90
2024-03-12T14:20:51.932Z,8.80
2024-03-12T14:23:19.698Z,8.80
2024-03-12T14:25:46.630Z,8.80
2024-03-12T14:28:13.423Z,8.80
2024-03-12T14:30:40.135Z,8.80
2024-03-12T14:33:07.373Z,8.80
2024-03-12T14:35:34.157Z,8.90
2024-03-12T14:38:00.862Z,8.90
2024-03-12T14:40:27.599Z,8.90
2024-03-12T14:42:55.802Z,8.90
2024-03-12T14:45:25.635Z,8.90
2024-03-12T14:47:52.517Z,9.00
2024-03-12T14:50:19.463Z,9.00
2024-03-12T14:52:46.931Z,9.10
2024-03-12T14:55:14.288Z,9.10
2024-03-12T14:57:42.021Z,9.10
2024-03-12T15:00:11.589Z,9.10
2024-03-12T15:02:38.619Z,9.10
2024-03-12T15:05:15.523Z,9.10
2024-03-12T15:07:44.477Z,9.10
2024-03-12T15:10:12.405Z,9.00
2024-03-12T15:12:40.976Z,8.90
2024-03-12T15:15:12.580Z,8.90
2024-03-12T15:17:40.306Z,8.90
2024-03-12T15:20:16.772Z,8.90
2024-03-12T15:22:44.606Z,8.80
2024-03-12T15:25:16.035Z,8.80
2024-03-12T15:27:43.391Z,8.80
2024-03-12T15:30:11.047Z,8.80
2024-03-12T15:32:39.497Z,8.90
2024-03-12T15:35:07.443Z,8.90
2024-03-12T15:37:36.524Z,9.00
2024-03-12T15:40:13.773Z,9.00
2024-03-12T15:42:45.182Z,9.00
2024-03-12T15:45:13.496Z,9.00
2024-03-12T15:47:40.925Z,9.00
2024-03-12T15:50:08.509Z,9.00
2024-03-12T15:52:35.387Z,9.00
2024-03-12T15:55:02.990Z,8.90
2024-03-12T15:57:32.827Z,9.00
2024-03-12T15:59:59.525Z,9.00
2024-03-12T16:02:26.289Z,9.00
2024-03-12T16:04:53.475Z,9.00
2024-03-12T16:07:20.293Z,8.90
2024-03-12T16:09:47.277Z,8.90
2024-03-12T16:12:14.521Z,8.90
2024-03-12T16:14:42.218Z,8.90
2024-03-12T16:17:09.303Z,9.00
2024-03-12T16:19:36.223Z,9.00
2024-03-12T16:22:02.926Z,9.00
2024-03-12T16:24:32.434Z,9.00
2024-03-12T16:26:59.906Z,9.00
2024-03-12T16:29:27.846Z,8.90
2024-03-12T16:31:55.451Z,8.90
2024-03-12T16:34:22.250Z,8.90
2024-03-12T16:36:49.026Z,8.90
2024-03-12T16:39:15.729Z,8.90
2024-03-12T16:41:43.561Z,8.90
2024-03-12T16:44:10.713Z,8.90
2024-03-12T16:46:37.500Z,9.10
2024-03-12T16:49:04.898Z,9.30
2024-03-12T16:51:35.204Z,9.40
2024-03-12T16:54:03.345Z,9.60
2024-03-12T16:56:33.685Z,9.60
2024-03-12T16:59:01.416Z,9.60
2024-03-12T17:01:28.907Z,9.50
2024-03-12T17:03:55.898Z,9.50
2024-03-12T17:06:23.359Z,9.50
2024-03-12T17:08:50.505Z,9.50
2024-03-12T17:11:17.451Z,9.40
2024-03-12T17:13:44.387Z,9.40
2024-03-12T17:16:14.041Z,9.40
2024-03-12T17:18:41.745Z,9.30
2024-03-12T17:21:09.777Z,9.10
2024-03-12T17:23:37.692Z,9.10
2024-03-12T17:26:05.368Z,9.00
2024-03-12T17:28:34.153Z,8.90
2024-03-12T17:31:01.146Z,8.90
2024-03-12T17:33:28.270Z,8.90
2024-03-12T17:35:56.107Z,8.80
2024-03-12T17:38:25.644Z,8.80
2024-03-12T17:40:59.214Z,10.10
2024-03-12T17:43:27.222Z,8.80
2024-03-12T17:45:54.371Z,8.70
2024-03-12T17:48:21.891Z,8.70
2024-03-12T17:50:48.834Z,8.60
2024-03-12T17:53:17.346Z,8.50
2024-03-12T17:55:47.773Z,8.50
2024-03-12T17:58:17.267Z,8.40
2024-03-12T18:00:45.118Z,8.40
2024-03-12T18:03:12.679Z,8.20
2024-03-12T18:05:39.417Z,8.20
2024-03-12T18:08:13.673Z,8.10
2024-03-12T18:10:42.897Z,8.10
2024-03-12T18:13:11.638Z,8.00
2024-03-12T18:15:38.398Z,7.80
2024-03-12T18:18:06.102Z,7.80
2024-03-12T18:20:34.671Z,7.80
2024-03-12T18:23:01.364Z,7.80
2024-03-12T18:25:28.178Z,7.80
2024-03-12T18:27:57.083Z,7.70
2024-03-12T18:30:24.150Z,7.60
2024-03-12T18:32:50.943Z,7.60
2024-03-12T18:35:19.684Z,7.60
2024-03-12T18:37:46.461Z,7.60
2024-03-12T18:40:14.641Z,7.40
2024-03-12T18:42:44.307Z,7.40
2024-03-12T18:45:13.882Z,7.40
2024-03-12T18:47:41.378Z,7.30
2024-03-12T18:50:16.008Z,7.30
2024-03-12T18:52:46.433Z,7.20
2024-03-12T18:55:13.814Z,7.20
2024-03-12T18:57:42.022Z,7.10
2024-03-12T19:00:10.663Z,7.20
2024-03-12T19:02:40.076Z,7.00
2024-03-12T19:05:17.699Z,6.90
2024-03-12T19:07:52.083Z,6.90
2024-03-12T19:10:20.371Z,6.90
2024-03-12T19:12:47.961Z,6.80
2024-03-12T19:15:16.706Z,6.80
2024-03-12T19:17:45.880Z,6.80
2024-03-12T19:20:19.302Z,6.70
2024-03-12T19:22:48.035Z,6.60
2024-03-12T19:25:16.678Z,6.50
2024-03-12T19:27:46.122Z,6.50
2024-03-12T19:30:14.794Z,6.40
2024-03-12T19:32:42.404Z,6.40
2024-03-12T19:35:09.865Z,6.30
2024-03-12T19:37:38.165Z,6.30
2024-03-12T19:40:12.204Z,6.20
2024-03-12T19:42:45.929Z,6.20
2024-03-12T19:45:13.933Z,6.20
2024-03-12T19:47:46.838Z,6.20
2024-03-12T19:50:18.966Z,6.00
2024-03-12T19:52:49.667Z,6.10
2024-03-12T19:55:20.436Z,6.00
2024-03-12T19:57:57.275Z,6.00
2024-03-12T20:00:26.725Z,6.00
2024-03-12T20:02:57.531Z,5.90
2024-03-12T20:05:25.641Z,5.80
2024-03-12T20:07:52.793Z,5.90
2024-03-12T20:10:20.447Z,5.90
2024-03-12T20:12:56.435Z,5.90
2024-03-12T20:15:24.495Z,5.80
2024-03-12T20:17:52.007Z,5.70
2024-03-12T20:20:19.007Z,5.70
2024-03-12T20:22:52.001Z,5.60
2024-03-12T20:25:20.131Z,5.60
2024-03-12T20:27:52.868Z,5.60
2024-03-12T20:30:22.533Z,5.30
2024-03-12T20:35:19.698Z,5.50
2024-03-12T20:37:48.750Z,5.50
2024-03-12T20:40:15.871Z,5.40
2024-03-12T20:42:49.485Z,5.40
2024-03-12T20:45:21.441Z,5.40
2024-03-12T20:55:15.123Z,5.30
2024-03-12T21:00:19.278Z,5.20
2024-03-12T21:02:50.709Z,5.40
2024-03-12T21:07:46.026Z,5.10
2024-03-12T21:10:13.283Z,5.10
2024-03-12T21:15:10.052Z,5.00
2024-03-12T21:20:13.484Z,5.00
2024-03-12T21:22:40.415Z,5.00
2024-03-12T21:27:35.304Z,4.90
2024-03-12T21:30:06.917Z,5.00
2024-03-12T21:42:24.699Z,5.00
2024-03-12T21:44:53.776Z,5.10
2024-03-12T21:47:20.602Z,5.10
2024-03-12T21:52:16.846Z,5.10
2024-03-12T21:54:45.465Z,5.10
2024-03-12T21:59:40.653Z,5.00
2024-03-12T22:02:07.773Z,5.00
2024-03-12T22:04:34.738Z,4.90
2024-03-12T22:09:31.986Z,4.90
2024-03-12T22:14:25.996Z,4.70
2024-03-12T22:19:20.125Z,4.90
2024-03-12T22:29:18.956Z,4.70
2024-03-12T22:39:09.858Z,4.70
2024-03-12T22:41:37.294Z,4.60
2024-03-12T22:46:32.391Z,4.50
2024-03-12T22:51:27.398Z,4.40
2024-03-12T23:06:13.017Z,5.20
2024-03-12T23:08:40.020Z,4.30
2024-03-12T23:16:03.124Z,4.30
2024-03-12T23:18:31.175Z,4.20
2024-03-12T23:23:25.111Z,4.20
2024-03-12T23:30:49.629Z,4.20
2024-03-12T23:38:12.699Z,4.10
2024-03-12T23:40:39.787Z,4.10
2024-03-12T23:43:06.641Z,4.10
